Latest Weather Observations for Latrobe Valley

IDV60801

Issued at 5:35 pm EDT Monday 24 November 2014 (issued every 30 minutes, with the page automatically refreshed every 10 minutes)

About weather observations | Map of weather stations | Latest weather observations for VIC | Other Formats
Station Details ID: 085280 Name: LATROBE VALLEY AIRPORT Lat: -38.21 Lon: 146.47 Height: 55.7 m
Data from the previous 72 hours. | See also: Recent months at Latrobe Valley
Date/Time
EDT
Temp
°C
App
Temp
°C
Dew
Point
Rel
Hum
%
Delta-T
°C
Wind Press
QNH
hPa
Press
MSL
hPa
Rain
since 9 am
mm
Dir
 
Spd
km/h
Gust
km/h
Spd
kts
Gust
kts
24/05:30pm 17.4 18.2 17.4 100 0.0 WNW 9 13 5 7 1005.6 1005.5 5.2
24/05:14pm 17.2 18.0 17.2 100 0.0 N 9 13 5 7 1005.3 1005.2 5.2
24/05:01pm 17.1 18.2 17.1 100 0.0 NE 7 13 4 7 1005.4 1005.3 5.0
24/05:00pm 17.1 18.2 17.1 100 0.0 NE 7 13 4 7 1005.3 1005.2 5.0
24/04:42pm 17.3 17.7 17.3 100 0.0 NE 11 17 6 9 1005.2 1005.1 4.6
24/04:30pm 17.3 17.0 17.3 100 0.0 ENE 15 24 8 13 1005.2 1005.1 4.2
24/04:07pm 17.3 16.6 17.3 100 0.0 E 17 24 9 13 1005.0 1004.9 4.2
24/04:00pm 17.2 16.8 17.2 100 0.0 E 15 24 8 13 1005.3 1005.2 4.0
24/03:49pm 17.2 17.2 17.2 100 0.0 ENE 13 19 7 10 1005.6 1005.5 3.6
24/03:44pm 17.3 17.7 17.3 100 0.0 ENE 11 17 6 9 1005.8 1005.7 3.2
24/03:30pm 17.4 18.2 17.4 100 0.0 ENE 9 13 5 7 1005.8 1005.7 2.4
24/03:26pm 17.5 18.0 17.5 100 0.0 NE 11 17 6 9 1005.9 1005.8 2.2
24/03:00pm 17.7 18.3 17.7 100 0.0 NNE 11 20 6 11 1006.2 1006.1 1.2
24/02:45pm 17.6 17.4 17.6 100 0.0 NNE 15 20 8 11 1006.0 1005.9 1.2
24/02:34pm 17.5 17.6 17.5 100 0.0 NW 13 19 7 10 1006.9 1006.8 1.0
24/02:30pm 17.5 17.6 17.5 100 0.0 NW 13 19 7 10 1007.5 1007.4 1.0
24/02:00pm 18.1 18.8 17.9 99 0.1 N 11 13 6 7 1006.1 1006.0 0.8
24/01:30pm 17.6 17.4 17.6 100 0.0 SW 15 22 8 12 1008.0 1007.9 0.6
24/01:00pm 17.6 17.5 17.0 96 0.4 WSW 13 17 7 9 1008.9 1008.9 0.2
24/12:30pm 17.8 16.3 15.4 86 1.4 WSW 17 20 9 11 1009.3 1009.3 0.2
24/12:00pm 17.7 16.0 15.7 88 1.2 WSW 19 24 10 13 1009.6 1009.6 0.2
24/11:30am 17.7 16.0 15.7 88 1.2 WSW 19 22 10 12 1009.7 1009.7 0.2
24/11:00am 18.0 17.4 16.7 92 0.8 W 15 19 8 10 1009.9 1009.9 0.2
24/10:30am 17.3 17.8 16.5 95 0.5 WSW 9 15 5 8 1009.7 1009.7 0.2
24/10:00am 16.9 17.4 15.6 92 0.8 ESE 7 13 4 7 1009.9 1009.9 0.0
24/09:30am 16.4 15.5 14.8 90 0.9 ENE 13 19 7 10 1009.5 1009.5 0.0
24/09:00am 15.8 13.6 14.3 91 0.9 ENE 19 24 10 13 1008.2 1008.2 0.0
24/08:30am 15.9 15.1 13.9 88 1.1 NE 11 13 6 7 1009.4 1009.4 0.0
24/08:00am 15.6 14.7 13.6 88 1.1 ENE 11 19 6 10 1009.3 1009.3 0.0
24/07:30am 14.9 14.2 13.1 89 1.0 E 9 17 5 9 1009.7 1009.7 0.0
24/07:00am 14.3 13.8 12.5 89 1.0 E 7 11 4 6 1010.1 1010.1 0.0
24/06:30am 14.0 12.8 11.7 86 1.2 E 9 15 5 8 1009.7 1009.7 0.0
24/06:00am 13.4 12.2 10.4 82 1.6 ENE 7 13 4 7 1009.8 1009.8 0.0
24/05:30am 13.3 11.6 9.9 80 1.8 E 9 17 5 9 1009.9 1009.9 0.0
24/05:00am 13.2 11.4 9.6 79 1.8 E 9 13 5 7 1010.0 1010.0 0.0
24/04:30am 11.9 10.4 9.1 83 1.4 ENE 7 9 4 5 1010.2 1010.2 0.0
24/04:00am 13.3 11.2 8.2 71 2.5 E 9 13 5 7 1010.2 1010.2 0.0
24/03:30am 12.9 11.2 8.4 74 2.2 ENE 7 11 4 6 1010.8 1010.8 0.0
24/03:00am 13.7 11.8 9.0 73 2.4 E 9 13 5 7 1011.2 1011.2 0.0
24/02:30am 13.8 12.3 9.0 73 2.4 E 7 13 4 7 1011.8 1011.8 0.0
24/02:00am 13.9 12.4 9.3 74 2.4 E 7 11 4 6 1012.4 1012.4 0.0
24/01:30am 13.5 12.4 10.5 82 1.6 ENE 7 11 4 6 1013.1 1013.1 0.0
24/01:00am 14.2 12.4 9.6 74 2.4 ENE 9 11 5 6 1013.0 1013.0 0.0
24/12:30am 14.7 13.4 9.9 73 2.5 ENE 7 13 4 7 1013.4 1013.3 0.0
24/12:00am 14.8 13.1 10.0 73 2.5 E 9 13 5 7 1013.8 1013.7 0.0
 
Date/Time
EDT
Temp
°C
App
Temp
°C
Dew
Point
Rel
Hum
%
Delta-T
°C
Wind Press
QNH
hPa
Press
MSL
hPa
Rain
since 9 am
mm
Dir
 
Spd
km/h
Gust
km/h
Spd
kts
Gust
kts
23/11:30pm 15.1 13.5 10.1 72 2.6 E 9 17 5 9 1014.2 1014.1 0.0
23/11:00pm 15.2 13.2 10.0 71 2.7 E 11 15 6 8 1014.3 1014.2 0.0
23/10:30pm 15.7 12.9 10.0 69 3.0 ENE 15 26 8 14 1014.8 1014.7 0.0
23/10:00pm 15.8 13.2 10.8 72 2.7 ENE 15 24 8 13 1014.6 1014.5 0.0
23/09:30pm 16.5 13.6 11.0 70 3.0 ENE 17 24 9 13 1014.8 1014.7 0.0
23/09:00pm 16.9 13.5 10.5 66 3.4 ENE 19 28 10 15 1014.4 1014.3 0.0
23/08:30pm 17.5 14.1 11.3 67 3.4 NE 20 28 11 15 1014.1 1014.0 0.0
23/08:00pm 18.2 14.9 11.7 66 3.6 NE 20 26 11 14 1014.1 1014.0 0.0
23/07:30pm 18.8 16.0 11.4 62 4.1 NE 17 24 9 13 1013.8 1013.7 0.0
23/07:00pm 20.0 18.5 12.0 60 4.5 ENE 11 20 6 11 1013.4 1013.3 0.0
23/06:30pm 21.1 20.3 13.0 60 4.6 E 9 15 5 8 1012.7 1012.7 0.0
23/06:00pm 21.6 20.8 13.0 58 4.9 E 9 13 5 7 1012.5 1012.5 0.0
23/05:30pm 22.4 21.5 13.7 58 5.1 E 11 15 6 8 1012.0 1012.0 0.0
23/05:00pm 23.7 22.5 14.1 55 5.7 E 13 19 7 10 1011.5 1011.5 0.0
23/04:30pm 24.1 23.3 15.1 57 5.4 ENE 13 20 7 11 1010.7 1010.7 0.0
23/04:00pm 24.1 23.3 15.1 57 5.4 ENE 13 20 7 11 1010.5 1010.5 0.0
23/03:30pm 25.7 26.7 15.4 53 6.2 WSW 4 9 2 5 1010.3 1010.3 0.0
23/03:00pm 26.6 27.2 15.9 51 6.6 NE 7 13 4 7 1010.1 1010.1 0.0
23/02:30pm 25.6 26.1 15.0 52 6.4 N 6 13 3 7 1010.3 1010.3 0.0
23/02:00pm 25.9 26.4 15.6 53 6.3 SSW 7 17 4 9 1010.5 1010.5 0.0
23/01:30pm 25.4 25.8 16.3 57 5.6 SSW 9 19 5 10 1010.7 1010.7 0.0
23/01:00pm 24.5 24.6 15.4 57 5.5 SSW 9 17 5 9 1010.9 1010.9 0.0
23/12:30pm 23.8 23.1 14.2 55 5.7 S 11 17 6 9 1011.1 1011.1 0.0
23/12:00pm 23.7 23.1 14.7 57 5.4 SSW 11 17 6 9 1011.4 1011.4 0.0
23/11:30am 23.0 22.5 13.8 56 5.4 SW 9 17 5 9 1011.7 1011.7 0.0
23/11:00am 22.2 21.2 13.3 57 5.1 SW 11 20 6 11 1012.0 1012.0 0.0
23/10:30am 21.4 20.3 13.1 59 4.8 SW 11 19 6 10 1012.2 1012.2 0.0
23/10:00am 21.1 20.0 13.0 60 4.6 W 11 19 6 10 1012.4 1012.4 0.0
23/09:30am 20.4 19.4 13.4 64 4.0 WSW 11 19 6 10 1012.5 1012.5 0.0
23/09:00am 18.9 17.1 12.2 65 3.7 WSW 13 19 7 10 1012.5 1012.5 0.0
23/08:30am 18.2 16.7 13.1 72 2.9 WSW 13 20 7 11 1012.3 1012.3 0.0
23/08:00am 17.6 17.3 14.5 82 1.8 SW 9 15 5 8 1011.9 1011.9 0.0
23/07:30am 16.3 16.2 13.8 85 1.4 S 7 9 4 5 1011.9 1011.9 0.0
23/07:00am 15.9 14.7 13.9 88 1.1 WSW 13 17 7 9 1011.7 1011.7 0.0
23/06:30am 15.1 12.9 13.3 89 1.0 W 17 22 9 12 1011.3 1011.3 0.0
23/06:00am 14.8 12.6 13.3 91 0.8 WNW 17 24 9 13 1011.3 1011.3 0.0
23/05:30am 14.6 12.7 13.0 90 0.9 WNW 15 22 8 12 1010.9 1010.9 0.0
23/05:00am 14.6 12.2 12.8 89 1.0 W 17 22 9 12 1010.3 1010.3 0.0
23/04:30am 15.5 13.2 13.0 85 1.4 W 17 26 9 14 1009.3 1009.3 0.0
23/04:00am 15.3 13.3 12.8 85 1.4 W 15 19 8 10 1009.4 1009.4 0.0
23/03:30am 15.7 13.7 12.8 83 1.6 WNW 15 19 8 10 1009.0 1009.0 0.0
23/03:00am 16.0 13.5 12.4 79 2.0 NW 17 20 9 11 1009.1 1009.1 0.0
23/02:30am 16.3 14.6 12.3 77 2.2 WNW 13 19 7 10 1008.9 1008.9 0.0
23/02:00am 17.1 14.4 11.8 71 2.9 W 17 24 9 13 1008.5 1008.5 0.0
23/01:30am 17.0 15.3 11.3 69 3.1 W 11 15 6 8 1008.5 1008.5 0.0
23/01:00am 18.4 15.6 11.2 63 3.9 WSW 17 20 9 11 1008.1 1008.1 0.0
23/12:30am 18.7 16.0 11.8 64 3.8 WSW 17 20 9 11 1007.9 1007.8 0.0
23/12:00am 19.7 17.5 12.0 61 4.3 SW 15 24 8 13 1007.7 1007.6 0.0
 
Date/Time
EDT
Temp
°C
App
Temp
°C
Dew
Point
Rel
Hum
%
Delta-T
°C
Wind Press
QNH
hPa
Press
MSL
hPa
Rain
since 9 am
mm
Dir
 
Spd
km/h
Gust
km/h
Spd
kts
Gust
kts
22/11:30pm 19.5 16.5 12.7 65 3.8 SW 20 28 11 15 1007.7 1007.6 0.0
22/11:00pm 18.3 17.4 12.7 70 3.1 S 9 11 5 6 1006.9 1006.8 0.0
22/10:30pm 19.1 19.9 12.4 65 3.7 CALM 0 0 0 0 1006.7 1006.6 0.0
22/10:00pm 19.8 19.4 12.3 62 4.2 NNE 6 7 3 4 1006.5 1006.4 0.0
22/09:30pm 21.8 21.6 11.8 53 5.6 S 4 6 2 3 1006.7 1006.6 0.0
22/09:00pm 23.0 22.6 12.3 51 6.1 SW 6 9 3 5 1006.6 1006.5 0.0
22/08:30pm 23.8 24.3 11.5 46 6.9 CALM 0 0 0 0 1006.2 1006.1 0.0
22/08:00pm 26.1 24.6 9.0 34 9.4 SW 7 11 4 6 1005.8 1005.7 0.0
22/07:30pm 26.0 24.4 10.2 37 8.8 WNW 9 13 5 7 1005.8 1005.7 0.0
22/07:00pm 27.5 24.6 9.8 33 9.9 WNW 15 19 8 10 1006.0 1005.9 0.0
22/06:30pm 29.5 27.5 11.5 33 10.4 WNW 13 19 7 10 1006.0 1005.9 0.0
22/06:00pm 29.1 28.4 12.1 35 9.9 ESE 7 11 4 6 1005.9 1005.8 0.0
22/05:30pm 29.0 29.2 14.8 42 8.6 ESE 7 13 4 7 1006.0 1005.9 0.0
22/05:00pm 28.7 28.3 14.1 40 8.8 ESE 9 15 5 8 1006.3 1006.2 0.0
22/04:30pm 28.3 28.7 15.2 44 8.0 E 7 13 4 7 1006.7 1006.6 0.0
22/04:00pm 28.0 28.0 15.3 46 7.8 SE 9 13 5 7 1007.3 1007.2 0.0
22/03:30pm 27.5 28.9 15.5 48 7.3 NE 2 9 1 5 1007.6 1007.5 0.0
22/03:00pm 26.3 27.1 16.3 54 6.2 E 7 13 4 7 1007.9 1007.8 0.0
22/02:30pm 25.0 23.9 15.3 55 5.9 NNE 15 20 8 11 1008.0 1007.9 0.0
22/02:00pm 24.8 24.6 13.0 47 6.9 NNE 6 9 3 5 1008.1 1008.1 0.0
22/01:30pm 24.6 23.9 13.2 49 6.6 WSW 9 15 5 8 1009.9 1009.9 0.0
22/01:00pm 25.0 25.0 13.5 48 6.8 W 6 13 3 7 1009.8 1009.8 0.0
22/12:30pm 24.6 24.2 12.9 48 6.8 NNW 7 11 4 6 1009.9 1009.9 0.0
22/12:00pm 23.5 23.4 13.4 53 5.9 WSW 6 11 3 6 1010.4 1010.4 0.0
22/11:30am 23.0 23.6 14.3 58 5.1 N 4 9 2 5 1010.5 1010.5 0.0
22/11:00am 21.7 22.4 13.3 59 4.8 N 2 7 1 4 1011.0 1011.0 0.0
22/10:30am 21.5 22.0 14.9 66 3.9 NNE 6 9 3 5 1011.3 1011.3 0.0
22/10:00am 20.5 21.9 15.3 72 3.1 NNE 2 7 1 4 1011.4 1011.4 0.0
22/09:30am 17.9 17.9 13.6 76 2.4 NNE 6 11 3 6 1011.8 1011.8 0.0
22/09:00am 16.4 15.3 13.1 81 1.8 NNE 11 15 6 8 1011.6 1011.6 0.0
22/08:30am 16.2 15.4 12.9 81 1.8 NE 9 11 5 6 1011.7 1011.7 0.0
22/08:00am 14.4 14.5 12.8 90 0.9 NNE 4 7 2 4 1011.6 1011.6 0.0
22/07:30am 12.4 12.3 12.2 99 0.1 NE 4 7 2 4 1011.5 1011.5 0.0
22/07:00am 11.4 10.5 11.4 100 0.0 NNE 7 9 4 5 1011.1 1011.1 0.0
22/06:30am 10.0 8.7 10.0 100 0.0 NE 7 7 4 4 1011.1 1011.1 0.0
22/06:00am 8.9 6.9 8.8 99 0.0 NE 9 9 5 5 1011.2 1011.2 0.0
22/05:30am 9.0 7.4 8.9 99 0.0 NNE 7 9 4 5 1011.1 1011.1 0.0
22/05:00am 9.5 7.5 8.7 95 0.4 NNE 9 11 5 6 1010.8 1010.8 0.0
22/04:30am 11.6 10.2 10.8 95 0.4 E 9 13 5 7 1011.0 1011.0 0.0
22/04:00am 11.6 9.8 11.0 96 0.3 E 11 15 6 8 1010.9 1010.9 0.0
22/03:30am 11.7 10.4 11.1 96 0.3 E 9 15 5 8 1011.0 1011.0 0.0
22/03:00am 11.2 9.8 11.0 99 0.1 ESE 9 11 5 6 1011.5 1011.5 0.0
22/02:30am 11.1 9.7 10.9 99 0.1 E 9 15 5 8 1011.9 1011.9 0.0
22/02:00am 11.1 9.3 10.9 99 0.1 E 11 15 6 8 1012.2 1012.2 0.0
22/01:30am 11.7 10.1 11.5 99 0.1 E 11 15 6 8 1012.6 1012.6 0.0
22/01:00am 12.2 10.6 11.7 97 0.3 E 11 15 6 8 1013.4 1013.3 0.0
22/12:30am 12.4 11.2 11.6 95 0.4 E 9 13 5 7 1013.6 1013.5 0.0
22/12:00am 12.7 11.5 11.6 93 0.6 E 9 13 5 7 1013.8 1013.7 0.0
 
Date/Time
EDT
Temp
°C
App
Temp
°C
Dew
Point
Rel
Hum
%
Delta-T
°C
Wind Press
QNH
hPa
Press
MSL
hPa
Rain
since 9 am
mm
Dir
 
Spd
km/h
Gust
km/h
Spd
kts
Gust
kts
21/11:30pm 13.1 11.5 11.5 90 0.9 E 11 15 6 8 1014.0 1013.9 0.0
21/11:00pm 13.4 11.8 11.6 89 1.0 ENE 11 17 6 9 1014.0 1013.9 0.0
21/10:30pm 13.6 11.3 11.8 89 1.0 NE 15 22 8 12 1014.0 1013.9 0.0
21/10:00pm 13.5 12.5 12.2 92 0.7 E 9 11 5 6 1013.9 1013.8 0.0
21/09:30pm 12.8 11.5 11.4 91 0.7 W 9 11 5 6 1013.3 1013.2 0.0
21/09:00pm 13.7 12.4 11.2 85 1.3 WSW 9 11 5 6 1012.5 1012.5 0.0
21/08:30pm 16.3 15.2 11.9 75 2.4 S 9 13 5 7 1012.3 1012.3 0.0
21/08:00pm 17.5 15.6 11.8 69 3.1 SSW 13 19 7 10 1012.1 1012.1 0.0
21/07:30pm 19.0 17.1 11.8 63 4.0 SSW 13 19 7 10 1011.8 1011.8 0.0
21/07:00pm 20.6 18.0 9.5 49 5.9 WSW 13 17 7 9 1011.4 1011.4 0.0
21/06:30pm 21.0 17.5 10.2 50 5.9 W 19 24 10 13 1010.9 1010.9 0.0
21/06:00pm 21.3 16.9 10.5 50 5.9 WSW 24 28 13 15 1010.6 1010.6 0.0

Other Formats:

Comma delimited format used in spreadsheet applications
http://www.bom.gov.au/fwo/IDV60801/IDV60801.94891.axf

JavaScript Object Notation format (JSON) in row-major order
http://www.bom.gov.au/fwo/IDV60801/IDV60801.94891.json